sensor_id;sensor_type;location;lat;lon;timestamp;P1;durP1;ratioP1;P2;durP2;ratioP2
62903;SDS011;49000;50.698;13.322;2024-03-23T00:55:50;7.57;;;4.60;;
62903;SDS011;49000;50.698;13.322;2024-03-23T00:58:16;6.40;;;4.10;;
62903;SDS011;49000;50.698;13.322;2024-03-23T01:00:41;6.53;;;4.90;;
62903;SDS011;49000;50.698;13.322;2024-03-23T01:03:07;6.23;;;3.80;;
62903;SDS011;49000;50.698;13.322;2024-03-23T01:05:32;6.00;;;4.37;;
62903;SDS011;49000;50.698;13.322;2024-03-23T01:07:57;5.93;;;4.30;;
62903;SDS011;49000;50.698;13.322;2024-03-23T01:10:23;5.97;;;4.40;;
62903;SDS011;49000;50.698;13.322;2024-03-23T01:12:48;7.87;;;4.77;;
62903;SDS011;49000;50.698;13.322;2024-03-23T01:15:14;7.77;;;5.07;;
62903;SDS011;49000;50.698;13.322;2024-03-23T01:17:39;7.17;;;4.90;;
62903;SDS011;49000;50.698;13.322;2024-03-23T01:20:05;6.70;;;4.63;;
62903;SDS011;49000;50.698;13.322;2024-03-23T01:22:31;6.30;;;4.77;;
62903;SDS011;49000;50.698;13.322;2024-03-23T01:24:56;7.83;;;5.40;;
62903;SDS011;49000;50.698;13.322;2024-03-23T01:27:22;7.67;;;4.60;;
62903;SDS011;49000;50.698;13.322;2024-03-23T01:29:48;7.07;;;4.73;;
62903;SDS011;49000;50.698;13.322;2024-03-23T01:32:13;5.80;;;4.73;;
62903;SDS011;49000;50.698;13.322;2024-03-23T01:34:39;6.77;;;4.33;;
62903;SDS011;49000;50.698;13.322;2024-03-23T01:37:04;5.77;;;4.47;;
62903;SDS011;49000;50.698;13.322;2024-03-23T01:39:30;6.10;;;4.40;;
62903;SDS011;49000;50.698;13.322;2024-03-23T01:41:55;6.37;;;4.40;;
62903;SDS011;49000;50.698;13.322;2024-03-23T01:44:21;7.37;;;4.60;;
62903;SDS011;49000;50.698;13.322;2024-03-23T01:46:46;5.83;;;4.60;;
62903;SDS011;49000;50.698;13.322;2024-03-23T01:49:12;6.50;;;5.13;;
62903;SDS011;49000;50.698;13.322;2024-03-23T01:51:38;7.80;;;5.40;;
62903;SDS011;49000;50.698;13.322;2024-03-23T01:54:04;6.67;;;4.83;;
62903;SDS011;49000;50.698;13.322;2024-03-23T01:56:34;7.00;;;4.90;;
62903;SDS011;49000;50.698;13.322;2024-03-23T01:59:03;6.30;;;4.93;;
62903;SDS011;49000;50.698;13.322;2024-03-23T02:01:29;6.87;;;5.20;;
62903;SDS011;49000;50.698;13.322;2024-03-23T02:03:55;6.97;;;4.97;;
62903;SDS011;49000;50.698;13.322;2024-03-23T02:06:21;7.47;;;5.17;;
62903;SDS011;49000;50.698;13.322;2024-03-23T02:08:47;7.77;;;5.67;;
62903;SDS011;49000;50.698;13.322;2024-03-23T02:11:13;7.13;;;4.77;;
62903;SDS011;49000;50.698;13.322;2024-03-23T02:13:39;7.37;;;4.93;;
62903;SDS011;49000;50.698;13.322;2024-03-23T02:16:04;6.10;;;5.13;;
62903;SDS011;49000;50.698;13.322;2024-03-23T02:18:31;9.23;;;5.93;;
62903;SDS011;49000;50.698;13.322;2024-03-23T02:21:00;8.20;;;5.27;;
62903;SDS011;49000;50.698;13.322;2024-03-23T02:23:25;7.93;;;5.20;;
62903;SDS011;49000;50.698;13.322;2024-03-23T02:25:51;7.77;;;5.30;;
62903;SDS011;49000;50.698;13.322;2024-03-23T02:28:18;8.83;;;5.63;;
62903;SDS011;49000;50.698;13.322;2024-03-23T02:30:44;7.50;;;5.60;;
62903;SDS011;49000;50.698;13.322;2024-03-23T02:33:09;6.53;;;5.03;;
62903;SDS011;49000;50.698;13.322;2024-03-23T02:35:34;8.40;;;5.37;;
62903;SDS011;49000;50.698;13.322;2024-03-23T02:38:00;7.37;;;5.70;;
62903;SDS011;49000;50.698;13.322;2024-03-23T02:40:26;8.20;;;5.60;;
62903;SDS011;49000;50.698;13.322;2024-03-23T02:42:52;6.90;;;5.30;;
62903;SDS011;49000;50.698;13.322;2024-03-23T02:45:18;7.90;;;5.57;;
62903;SDS011;49000;50.698;13.322;2024-03-23T02:47:43;5.87;;;5.13;;
62903;SDS011;49000;50.698;13.322;2024-03-23T02:50:09;6.73;;;5.10;;
62903;SDS011;49000;50.698;13.322;2024-03-23T02:52:35;9.93;;;5.10;;
62903;SDS011;49000;50.698;13.322;2024-03-23T02:55:01;5.97;;;4.50;;
62903;SDS011;49000;50.698;13.322;2024-03-23T02:57:27;7.77;;;4.70;;
62903;SDS011;49000;50.698;13.322;2024-03-23T02:59:52;5.67;;;4.63;;
62903;SDS011;49000;50.698;13.322;2024-03-23T03:02:18;9.17;;;5.50;;
62903;SDS011;49000;50.698;13.322;2024-03-23T03:04:43;6.87;;;5.20;;
62903;SDS011;49000;50.698;13.322;2024-03-23T03:07:09;6.60;;;4.80;;
62903;SDS011;49000;50.698;13.322;2024-03-23T03:09:34;9.27;;;4.63;;
62903;SDS011;49000;50.698;13.322;2024-03-23T03:12:01;7.23;;;5.40;;
62903;SDS011;49000;50.698;13.322;2024-03-23T03:14:27;6.60;;;4.33;;
62903;SDS011;49000;50.698;13.322;2024-03-23T03:16:53;8.43;;;5.00;;
62903;SDS011;49000;50.698;13.322;2024-03-23T03:19:18;8.03;;;4.70;;
62903;SDS011;49000;50.698;13.322;2024-03-23T03:21:44;7.63;;;5.13;;
62903;SDS011;49000;50.698;13.322;2024-03-23T03:24:09;8.67;;;5.70;;
62903;SDS011;49000;50.698;13.322;2024-03-23T03:26:35;7.30;;;5.20;;
62903;SDS011;49000;50.698;13.322;2024-03-23T03:29:00;8.97;;;5.57;;
62903;SDS011;49000;50.698;13.322;2024-03-23T03:31:27;8.27;;;5.57;;
62903;SDS011;49000;50.698;13.322;2024-03-23T03:33:52;8.70;;;6.17;;
62903;SDS011;49000;50.698;13.322;2024-03-23T03:36:17;5.90;;;4.73;;
62903;SDS011;49000;50.698;13.322;2024-03-23T03:38:43;8.80;;;5.43;;
62903;SDS011;49000;50.698;13.322;2024-03-23T03:41:08;9.57;;;5.50;;
62903;SDS011;49000;50.698;13.322;2024-03-23T03:43:34;6.93;;;4.70;;
62903;SDS011;49000;50.698;13.322;2024-03-23T03:46:00;6.50;;;5.00;;
62903;SDS011;49000;50.698;13.322;2024-03-23T03:48:26;7.53;;;4.77;;
62903;SDS011;49000;50.698;13.322;2024-03-23T03:50:52;9.30;;;5.53;;
62903;SDS011;49000;50.698;13.322;2024-03-23T03:53:18;8.03;;;5.23;;
62903;SDS011;49000;50.698;13.322;2024-03-23T03:55:44;8.73;;;5.20;;
62903;SDS011;49000;50.698;13.322;2024-03-23T03:58:09;6.63;;;4.70;;
62903;SDS011;49000;50.698;13.322;2024-03-23T04:00:35;6.47;;;4.97;;
62903;SDS011;49000;50.698;13.322;2024-03-23T04:03:00;7.47;;;5.03;;
62903;SDS011;49000;50.698;13.322;2024-03-23T04:05:26;6.03;;;4.67;;
62903;SDS011;49000;50.698;13.322;2024-03-23T04:07:52;8.00;;;4.50;;
62903;SDS011;49000;50.698;13.322;2024-03-23T04:10:17;6.47;;;5.10;;
62903;SDS011;49000;50.698;13.322;2024-03-23T04:12:43;8.47;;;4.80;;
62903;SDS011;49000;50.698;13.322;2024-03-23T04:15:10;6.60;;;4.77;;
62903;SDS011;49000;50.698;13.322;2024-03-23T04:17:35;7.30;;;5.00;;
62903;SDS011;49000;50.698;13.322;2024-03-23T04:20:01;7.23;;;5.13;;
62903;SDS011;49000;50.698;13.322;2024-03-23T04:22:29;6.30;;;4.50;;
62903;SDS011;49000;50.698;13.322;2024-03-23T04:24:55;9.63;;;5.40;;
62903;SDS011;49000;50.698;13.322;2024-03-23T04:27:21;9.23;;;5.70;;
62903;SDS011;49000;50.698;13.322;2024-03-23T04:29:48;10.33;;;5.93;;
62903;SDS011;49000;50.698;13.322;2024-03-23T04:32:14;7.93;;;5.60;;
62903;SDS011;49000;50.698;13.322;2024-03-23T04:34:39;9.30;;;5.50;;
62903;SDS011;49000;50.698;13.322;2024-03-23T04:37:05;6.60;;;5.03;;
62903;SDS011;49000;50.698;13.322;2024-03-23T04:39:31;8.77;;;6.07;;
62903;SDS011;49000;50.698;13.322;2024-03-23T04:41:56;8.50;;;5.70;;
62903;SDS011;49000;50.698;13.322;2024-03-23T04:44:21;6.53;;;5.17;;
62903;SDS011;49000;50.698;13.322;2024-03-23T04:46:47;7.57;;;5.37;;
62903;SDS011;49000;50.698;13.322;2024-03-23T04:49:12;7.63;;;5.40;;
62903;SDS011;49000;50.698;13.322;2024-03-23T04:51:38;8.70;;;5.80;;
62903;SDS011;49000;50.698;13.322;2024-03-23T04:54:03;11.27;;;6.90;;
62903;SDS011;49000;50.698;13.322;2024-03-23T04:56:30;11.47;;;6.87;;
62903;SDS011;49000;50.698;13.322;2024-03-23T04:58:56;8.50;;;6.50;;
62903;SDS011;49000;50.698;13.322;2024-03-23T05:01:26;8.20;;;6.50;;
62903;SDS011;49000;50.698;13.322;2024-03-23T05:03:52;8.53;;;6.20;;
62903;SDS011;49000;50.698;13.322;2024-03-23T05:06:17;7.97;;;6.17;;
62903;SDS011;49000;50.698;13.322;2024-03-23T05:08:43;9.07;;;6.13;;
62903;SDS011;49000;50.698;13.322;2024-03-23T05:11:09;8.77;;;6.53;;
62903;SDS011;49000;50.698;13.322;2024-03-23T05:13:35;9.97;;;6.50;;
62903;SDS011;49000;50.698;13.322;2024-03-23T05:16:00;9.70;;;6.80;;
62903;SDS011;49000;50.698;13.322;2024-03-23T05:18:26;9.00;;;6.27;;
62903;SDS011;49000;50.698;13.322;2024-03-23T05:20:56;8.80;;;6.53;;
62903;SDS011;49000;50.698;13.322;2024-03-23T05:23:22;8.23;;;6.40;;
62903;SDS011;49000;50.698;13.322;2024-03-23T05:25:48;11.93;;;6.67;;
62903;SDS011;49000;50.698;13.322;2024-03-23T05:28:14;11.27;;;7.63;;
62903;SDS011;49000;50.698;13.322;2024-03-23T05:30:39;9.07;;;6.93;;
62903;SDS011;49000;50.698;13.322;2024-03-23T05:33:05;10.90;;;6.50;;
62903;SDS011;49000;50.698;13.322;2024-03-23T05:35:30;11.50;;;7.33;;
62903;SDS011;49000;50.698;13.322;2024-03-23T05:37:56;10.00;;;7.07;;
62903;SDS011;49000;50.698;13.322;2024-03-23T05:40:23;11.10;;;7.20;;
62903;SDS011;49000;50.698;13.322;2024-03-23T05:42:49;13.87;;;8.17;;
62903;SDS011;49000;50.698;13.322;2024-03-23T05:45:17;12.57;;;8.43;;
62903;SDS011;49000;50.698;13.322;2024-03-23T05:47:43;13.00;;;7.93;;
62903;SDS011;49000;50.698;13.322;2024-03-23T05:50:09;13.40;;;9.80;;
62903;SDS011;49000;50.698;13.322;2024-03-23T05:52:37;16.20;;;8.97;;
62903;SDS011;49000;50.698;13.322;2024-03-23T05:55:03;12.40;;;8.83;;
62903;SDS011;49000;50.698;13.322;2024-03-23T05:57:29;13.87;;;8.67;;
62903;SDS011;49000;50.698;13.322;2024-03-23T05:59:55;13.83;;;9.17;;
62903;SDS011;49000;50.698;13.322;2024-03-23T06:02:20;10.80;;;7.60;;
62903;SDS011;49000;50.698;13.322;2024-03-23T06:04:46;12.07;;;8.13;;
62903;SDS011;49000;50.698;13.322;2024-03-23T06:07:11;11.33;;;7.97;;
62903;SDS011;49000;50.698;13.322;2024-03-23T06:09:39;14.90;;;7.60;;
62903;SDS011;49000;50.698;13.322;2024-03-23T06:12:05;12.63;;;8.90;;
62903;SDS011;49000;50.698;13.322;2024-03-23T06:14:30;10.43;;;7.90;;
62903;SDS011;49000;50.698;13.322;2024-03-23T06:16:57;12.70;;;7.30;;
62903;SDS011;49000;50.698;13.322;2024-03-23T06:19:23;9.67;;;6.90;;
62903;SDS011;49000;50.698;13.322;2024-03-23T06:21:52;14.30;;;7.83;;
62903;SDS011;49000;50.698;13.322;2024-03-23T06:24:17;10.90;;;7.17;;
62903;SDS011;49000;50.698;13.322;2024-03-23T06:26:42;9.37;;;7.17;;
62903;SDS011;49000;50.698;13.322;2024-03-23T06:29:08;12.07;;;7.40;;
62903;SDS011;49000;50.698;13.322;2024-03-23T06:31:34;11.40;;;7.37;;
62903;SDS011;49000;50.698;13.322;2024-03-23T06:33:59;11.10;;;7.83;;
62903;SDS011;49000;50.698;13.322;2024-03-23T06:36:26;10.77;;;8.10;;
62903;SDS011;49000;50.698;13.322;2024-03-23T06:38:52;11.57;;;8.50;;
62903;SDS011;49000;50.698;13.322;2024-03-23T06:41:17;13.37;;;8.70;;
62903;SDS011;49000;50.698;13.322;2024-03-23T06:43:44;13.03;;;8.50;;
62903;SDS011;49000;50.698;13.322;2024-03-23T06:46:09;14.27;;;8.20;;
62903;SDS011;49000;50.698;13.322;2024-03-23T06:48:35;13.73;;;8.77;;
62903;SDS011;49000;50.698;13.322;2024-03-23T06:51:00;11.77;;;9.20;;
62903;SDS011;49000;50.698;13.322;2024-03-23T06:53:26;13.63;;;8.80;;
62903;SDS011;49000;50.698;13.322;2024-03-23T06:55:52;13.83;;;9.50;;
62903;SDS011;49000;50.698;13.322;2024-03-23T06:58:21;12.83;;;9.07;;
62903;SDS011;49000;50.698;13.322;2024-03-23T07:00:48;13.50;;;9.17;;
62903;SDS011;49000;50.698;13.322;2024-03-23T07:03:14;13.90;;;9.07;;
62903;SDS011;49000;50.698;13.322;2024-03-23T07:05:41;12.63;;;7.80;;
62903;SDS011;49000;50.698;13.322;2024-03-23T07:08:07;10.37;;;7.77;;
62903;SDS011;49000;50.698;13.322;2024-03-23T07:10:33;11.97;;;7.50;;
62903;SDS011;49000;50.698;13.322;2024-03-23T07:12:58;10.63;;;7.17;;
62903;SDS011;49000;50.698;13.322;2024-03-23T07:15:24;11.23;;;6.60;;
62903;SDS011;49000;50.698;13.322;2024-03-23T07:17:50;11.00;;;7.07;;
62903;SDS011;49000;50.698;13.322;2024-03-23T07:20:15;9.30;;;6.60;;
62903;SDS011;49000;50.698;13.322;2024-03-23T07:22:41;6.30;;;4.87;;
62903;SDS011;49000;50.698;13.322;2024-03-23T07:25:06;5.23;;;3.90;;
62903;SDS011;49000;50.698;13.322;2024-03-23T07:27:32;4.97;;;3.27;;
62903;SDS011;49000;50.698;13.322;2024-03-23T07:29:58;4.80;;;3.40;;
62903;SDS011;49000;50.698;13.322;2024-03-23T07:32:24;4.53;;;3.43;;
62903;SDS011;49000;50.698;13.322;2024-03-23T07:34:51;4.77;;;3.43;;
62903;SDS011;49000;50.698;13.322;2024-03-23T07:37:17;4.13;;;3.37;;
62903;SDS011;49000;50.698;13.322;2024-03-23T07:39:42;6.23;;;4.33;;
62903;SDS011;49000;50.698;13.322;2024-03-23T07:42:08;6.80;;;4.77;;
62903;SDS011;49000;50.698;13.322;2024-03-23T07:44:33;5.17;;;3.43;;
62903;SDS011;49000;50.698;13.322;2024-03-23T07:47:02;3.93;;;3.20;;
62903;SDS011;49000;50.698;13.322;2024-03-23T07:49:28;5.53;;;3.40;;
62903;SDS011;49000;50.698;13.322;2024-03-23T07:51:53;4.20;;;3.10;;
62903;SDS011;49000;50.698;13.322;2024-03-23T07:54:19;4.60;;;3.00;;
62903;SDS011;49000;50.698;13.322;2024-03-23T07:56:44;4.40;;;3.27;;
62903;SDS011;49000;50.698;13.322;2024-03-23T07:59:10;4.30;;;3.30;;
62903;SDS011;49000;50.698;13.322;2024-03-23T08:01:36;3.67;;;2.70;;
62903;SDS011;49000;50.698;13.322;2024-03-23T08:04:01;3.20;;;2.50;;
62903;SDS011;49000;50.698;13.322;2024-03-23T08:06:27;4.73;;;2.97;;
62903;SDS011;49000;50.698;13.322;2024-03-23T08:08:54;5.80;;;3.00;;
62903;SDS011;49000;50.698;13.322;2024-03-23T08:11:27;6.77;;;3.20;;
62903;SDS011;49000;50.698;13.322;2024-03-23T08:13:54;4.33;;;3.03;;
62903;SDS011;49000;50.698;13.322;2024-03-23T08:16:20;4.73;;;3.20;;
62903;SDS011;49000;50.698;13.322;2024-03-23T08:18:46;4.70;;;3.10;;
62903;SDS011;49000;50.698;13.322;2024-03-23T08:21:11;7.37;;;4.57;;
62903;SDS011;49000;50.698;13.322;2024-03-23T08:23:37;5.80;;;3.93;;
62903;SDS011;49000;50.698;13.322;2024-03-23T08:26:09;5.77;;;4.30;;
62903;SDS011;49000;50.698;13.322;2024-03-23T08:28:36;5.60;;;4.27;;
62903;SDS011;49000;50.698;13.322;2024-03-23T08:31:10;7.10;;;4.83;;
62903;SDS011;49000;50.698;13.322;2024-03-23T08:33:37;8.27;;;5.57;;
62903;SDS011;49000;50.698;13.322;2024-03-23T08:36:05;6.73;;;5.33;;
62903;SDS011;49000;50.698;13.322;2024-03-23T08:38:34;7.37;;;5.43;;
62903;SDS011;49000;50.698;13.322;2024-03-23T08:41:01;7.57;;;5.20;;
62903;SDS011;49000;50.698;13.322;2024-03-23T08:43:28;7.93;;;6.30;;
62903;SDS011;49000;50.698;13.322;2024-03-23T08:46:02;9.90;;;6.30;;
62903;SDS011;49000;50.698;13.322;2024-03-23T08:48:29;8.57;;;6.43;;
62903;SDS011;49000;50.698;13.322;2024-03-23T08:51:01;8.70;;;6.57;;
62903;SDS011;49000;50.698;13.322;2024-03-23T08:53:30;8.77;;;6.40;;
62903;SDS011;49000;50.698;13.322;2024-03-23T08:55:56;9.93;;;7.47;;
62903;SDS011;49000;50.698;13.322;2024-03-23T08:58:24;9.60;;;6.53;;
62903;SDS011;49000;50.698;13.322;2024-03-23T09:00:51;8.10;;;6.47;;
62903;SDS011;49000;50.698;13.322;2024-03-23T09:03:16;9.53;;;6.60;;
62903;SDS011;49000;50.698;13.322;2024-03-23T09:05:42;9.17;;;6.77;;
62903;SDS011;49000;50.698;13.322;2024-03-23T09:08:07;8.43;;;6.80;;
62903;SDS011;49000;50.698;13.322;2024-03-23T09:10:40;11.47;;;6.77;;
62903;SDS011;49000;50.698;13.322;2024-03-23T09:13:06;10.17;;;6.87;;
62903;SDS011;49000;50.698;13.322;2024-03-23T09:15:36;10.00;;;7.50;;
62903;SDS011;49000;50.698;13.322;2024-03-23T09:18:03;8.97;;;6.90;;
62903;SDS011;49000;50.698;13.322;2024-03-23T09:20:29;8.47;;;7.07;;
62903;SDS011;49000;50.698;13.322;2024-03-23T09:22:57;9.07;;;6.90;;
62903;SDS011;49000;50.698;13.322;2024-03-23T09:25:23;8.53;;;6.63;;
62903;SDS011;49000;50.698;13.322;2024-03-23T09:27:48;9.17;;;6.73;;
62903;SDS011;49000;50.698;13.322;2024-03-23T09:30:14;8.73;;;6.80;;
62903;SDS011;49000;50.698;13.322;2024-03-23T09:32:43;7.47;;;5.50;;
62903;SDS011;49000;50.698;13.322;2024-03-23T09:35:09;8.53;;;6.00;;
62903;SDS011;49000;50.698;13.322;2024-03-23T09:37:35;8.50;;;6.40;;
62903;SDS011;49000;50.698;13.322;2024-03-23T09:40:01;7.57;;;3.93;;
62903;SDS011;49000;50.698;13.322;2024-03-23T09:42:27;5.33;;;3.90;;
62903;SDS011;49000;50.698;13.322;2024-03-23T09:44:52;6.27;;;4.00;;
62903;SDS011;49000;50.698;13.322;2024-03-23T09:47:19;7.47;;;4.20;;
62903;SDS011;49000;50.698;13.322;2024-03-23T09:49:44;6.47;;;3.63;;
62903;SDS011;49000;50.698;13.322;2024-03-23T09:52:10;8.60;;;4.37;;
62903;SDS011;49000;50.698;13.322;2024-03-23T09:54:35;38.53;;;6.90;;
62903;SDS011;49000;50.698;13.322;2024-03-23T09:57:01;149.53;;;9.50;;
62903;SDS011;49000;50.698;13.322;2024-03-23T09:59:26;13.33;;;4.00;;
62903;SDS011;49000;50.698;13.322;2024-03-23T10:01:55;86.63;;;6.90;;
62903;SDS011;49000;50.698;13.322;2024-03-23T10:04:40;242.67;;;10.70;;
62903;SDS011;49000;50.698;13.322;2024-03-23T10:07:12;12.50;;;1.37;;
62903;SDS011;49000;50.698;13.322;2024-03-23T10:09:40;24.07;;;1.90;;
62903;SDS011;49000;50.698;13.322;2024-03-23T10:12:09;103.43;;;4.67;;
62903;SDS011;49000;50.698;13.322;2024-03-23T10:14:41;12.43;;;1.57;;
62903;SDS011;49000;50.698;13.322;2024-03-23T10:17:16;4.83;;;0.90;;
62903;SDS011;49000;50.698;13.322;2024-03-23T10:19:48;0.97;;;0.70;;
62903;SDS011;49000;50.698;13.322;2024-03-23T10:22:18;0.50;;;0.40;;
62903;SDS011;49000;50.698;13.322;2024-03-23T10:24:45;0.60;;;0.30;;
62903;SDS011;49000;50.698;13.322;2024-03-23T10:27:21;1.43;;;0.53;;
62903;SDS011;49000;50.698;13.322;2024-03-23T10:29:47;0.20;;;0.20;;
62903;SDS011;49000;50.698;13.322;2024-03-23T10:32:14;0.30;;;0.27;;
62903;SDS011;49000;50.698;13.322;2024-03-23T10:34:40;0.30;;;0.30;;
62903;SDS011;49000;50.698;13.322;2024-03-23T10:37:06;0.87;;;0.40;;
62903;SDS011;49000;50.698;13.322;2024-03-23T10:39:39;0.37;;;0.30;;
62903;SDS011;49000;50.698;13.322;2024-03-23T10:42:06;0.60;;;0.40;;
62903;SDS011;49000;50.698;13.322;2024-03-23T10:44:36;0.40;;;0.30;;
62903;SDS011;49000;50.698;13.322;2024-03-23T10:47:02;0.70;;;0.40;;
62903;SDS011;49000;50.698;13.322;2024-03-23T10:49:36;0.57;;;0.27;;
62903;SDS011;49000;50.698;13.322;2024-03-23T10:52:03;0.30;;;0.20;;
62903;SDS011;49000;50.698;13.322;2024-03-23T10:54:32;0.20;;;0.20;;
62903;SDS011;49000;50.698;13.322;2024-03-23T10:57:05;0.10;;;0.10;;
62903;SDS011;49000;50.698;13.322;2024-03-23T10:59:36;0.20;;;0.20;;
62903;SDS011;49000;50.698;13.322;2024-03-23T11:02:03;0.30;;;0.20;;
62903;SDS011;49000;50.698;13.322;2024-03-23T11:04:29;0.10;;;0.10;;
62903;SDS011;49000;50.698;13.322;2024-03-23T11:06:56;0.20;;;0.10;;
62903;SDS011;49000;50.698;13.322;2024-03-23T11:12:09;0.40;;;0.20;;
62903;SDS011;49000;50.698;13.322;2024-03-23T11:14:49;0.27;;;0.20;;
62903;SDS011;49000;50.698;13.322;2024-03-23T11:17:23;0.47;;;0.30;;
62903;SDS011;49000;50.698;13.322;2024-03-23T11:19:53;0.33;;;0.20;;
62903;SDS011;49000;50.698;13.322;2024-03-23T11:27:48;0.40;;;0.20;;
62903;SDS011;49000;50.698;13.322;2024-03-23T11:30:15;0.30;;;0.30;;
62903;SDS011;49000;50.698;13.322;2024-03-23T11:32:43;0.60;;;0.40;;
62903;SDS011;49000;50.698;13.322;2024-03-23T11:35:09;0.60;;;0.40;;
62903;SDS011;49000;50.698;13.322;2024-03-23T11:37:35;1.67;;;0.40;;
62903;SDS011;49000;50.698;13.322;2024-03-23T11:40:16;0.63;;;0.50;;
62903;SDS011;49000;50.698;13.322;2024-03-23T11:42:42;1.63;;;0.50;;
62903;SDS011;49000;50.698;13.322;2024-03-23T11:45:08;2.30;;;0.60;;
62903;SDS011;49000;50.698;13.322;2024-03-23T11:47:34;0.97;;;0.60;;
62903;SDS011;49000;50.698;13.322;2024-03-23T11:50:00;0.80;;;0.40;;
62903;SDS011;49000;50.698;13.322;2024-03-23T11:52:25;0.60;;;0.50;;
62903;SDS011;49000;50.698;13.322;2024-03-23T11:54:51;0.70;;;0.40;;
62903;SDS011;49000;50.698;13.322;2024-03-23T11:57:16;0.97;;;0.40;;
62903;SDS011;49000;50.698;13.322;2024-03-23T11:59:42;0.50;;;0.40;;
62903;SDS011;49000;50.698;13.322;2024-03-23T12:04:35;0.87;;;0.70;;
62903;SDS011;49000;50.698;13.322;2024-03-23T12:07:11;1.17;;;0.70;;
62903;SDS011;49000;50.698;13.322;2024-03-23T12:10:04;0.80;;;0.63;;
62903;SDS011;49000;50.698;13.322;2024-03-23T12:12:33;1.20;;;0.90;;
62903;SDS011;49000;50.698;13.322;2024-03-23T12:15:03;1.17;;;0.73;;
62903;SDS011;49000;50.698;13.322;2024-03-23T12:17:30;1.30;;;0.83;;
62903;SDS011;49000;50.698;13.322;2024-03-23T12:19:56;1.00;;;0.90;;
62903;SDS011;49000;50.698;13.322;2024-03-23T12:22:22;1.20;;;0.90;;
62903;SDS011;49000;50.698;13.322;2024-03-23T12:24:48;0.97;;;0.80;;
62903;SDS011;49000;50.698;13.322;2024-03-23T12:27:13;0.80;;;0.60;;
62903;SDS011;49000;50.698;13.322;2024-03-23T12:29:42;0.90;;;0.77;;
62903;SDS011;49000;50.698;13.322;2024-03-23T12:32:10;1.10;;;0.80;;
62903;SDS011;49000;50.698;13.322;2024-03-23T12:34:36;1.20;;;1.00;;
62903;SDS011;49000;50.698;13.322;2024-03-23T12:37:02;1.50;;;1.10;;
62903;SDS011;49000;50.698;13.322;2024-03-23T12:39:27;1.80;;;1.10;;
62903;SDS011;49000;50.698;13.322;2024-03-23T12:41:53;1.40;;;1.07;;
62903;SDS011;49000;50.698;13.322;2024-03-23T12:44:18;1.37;;;1.17;;
62903;SDS011;49000;50.698;13.322;2024-03-23T12:46:44;1.50;;;1.13;;
62903;SDS011;49000;50.698;13.322;2024-03-23T12:49:10;1.63;;;1.00;;
62903;SDS011;49000;50.698;13.322;2024-03-23T12:51:36;1.47;;;1.10;;
62903;SDS011;49000;50.698;13.322;2024-03-23T12:54:02;1.73;;;1.10;;
62903;SDS011;49000;50.698;13.322;2024-03-23T12:56:27;1.37;;;1.07;;
62903;SDS011;49000;50.698;13.322;2024-03-23T12:58:53;2.60;;;0.90;;
62903;SDS011;49000;50.698;13.322;2024-03-23T13:01:20;1.30;;;1.20;;
62903;SDS011;49000;50.698;13.322;2024-03-23T13:03:49;3.27;;;0.90;;
62903;SDS011;49000;50.698;13.322;2024-03-23T13:06:15;2.13;;;0.97;;
62903;SDS011;49000;50.698;13.322;2024-03-23T13:08:42;1.23;;;0.67;;
62903;SDS011;49000;50.698;13.322;2024-03-23T13:11:09;1.50;;;0.80;;
62903;SDS011;49000;50.698;13.322;2024-03-23T13:13:35;1.40;;;0.70;;
62903;SDS011;49000;50.698;13.322;2024-03-23T13:16:01;0.90;;;0.67;;
62903;SDS011;49000;50.698;13.322;2024-03-23T13:18:27;1.03;;;0.80;;
62903;SDS011;49000;50.698;13.322;2024-03-23T13:20:54;1.13;;;0.80;;
62903;SDS011;49000;50.698;13.322;2024-03-23T13:23:19;0.90;;;0.80;;
62903;SDS011;49000;50.698;13.322;2024-03-23T13:25:51;0.97;;;0.87;;
62903;SDS011;49000;50.698;13.322;2024-03-23T13:28:21;1.10;;;0.70;;
62903;SDS011;49000;50.698;13.322;2024-03-23T13:30:54;1.83;;;1.00;;
62903;SDS011;49000;50.698;13.322;2024-03-23T13:33:20;1.30;;;0.90;;
62903;SDS011;49000;50.698;13.322;2024-03-23T13:35:52;1.67;;;1.13;;
62903;SDS011;49000;50.698;13.322;2024-03-23T13:38:18;2.43;;;1.17;;
62903;SDS011;49000;50.698;13.322;2024-03-23T13:40:56;1.50;;;1.00;;
62903;SDS011;49000;50.698;13.322;2024-03-23T13:43:23;3.83;;;0.90;;
62903;SDS011;49000;50.698;13.322;2024-03-23T13:45:53;1.40;;;1.10;;
62903;SDS011;49000;50.698;13.322;2024-03-23T13:48:21;1.77;;;0.73;;
62903;SDS011;49000;50.698;13.322;2024-03-23T13:50:47;1.67;;;1.20;;
62903;SDS011;49000;50.698;13.322;2024-03-23T13:53:22;1.90;;;1.17;;
62903;SDS011;49000;50.698;13.322;2024-03-23T13:55:48;1.80;;;1.10;;
62903;SDS011;49000;50.698;13.322;2024-03-23T13:58:14;3.03;;;1.40;;
62903;SDS011;49000;50.698;13.322;2024-03-23T14:00:40;2.73;;;1.07;;
62903;SDS011;49000;50.698;13.322;2024-03-23T14:03:08;2.60;;;1.13;;
62903;SDS011;49000;50.698;13.322;2024-03-23T14:05:37;2.67;;;1.20;;
62903;SDS011;49000;50.698;13.322;2024-03-23T14:08:05;3.20;;;1.33;;
62903;SDS011;49000;50.698;13.322;2024-03-23T14:10:31;4.23;;;1.53;;
62903;SDS011;49000;50.698;13.322;2024-03-23T14:12:57;5.87;;;1.30;;
62903;SDS011;49000;50.698;13.322;2024-03-23T14:15:24;2.77;;;1.30;;
62903;SDS011;49000;50.698;13.322;2024-03-23T14:17:50;5.67;;;1.60;;
62903;SDS011;49000;50.698;13.322;2024-03-23T14:20:16;5.30;;;1.90;;
62903;SDS011;49000;50.698;13.322;2024-03-23T14:22:41;4.43;;;2.00;;
62903;SDS011;49000;50.698;13.322;2024-03-23T14:25:08;5.80;;;2.10;;
62903;SDS011;49000;50.698;13.322;2024-03-23T14:27:34;5.53;;;2.13;;
62903;SDS011;49000;50.698;13.322;2024-03-23T14:30:03;6.27;;;2.00;;
62903;SDS011;49000;50.698;13.322;2024-03-23T14:32:30;9.57;;;3.53;;
62903;SDS011;49000;50.698;13.322;2024-03-23T14:34:59;5.57;;;2.27;;
62903;SDS011;49000;50.698;13.322;2024-03-23T14:37:28;10.10;;;2.43;;
62903;SDS011;49000;50.698;13.322;2024-03-23T14:39:55;8.00;;;3.97;;
62903;SDS011;49000;50.698;13.322;2024-03-23T14:42:21;4.27;;;2.00;;
62903;SDS011;49000;50.698;13.322;2024-03-23T14:44:47;6.27;;;2.43;;
62903;SDS011;49000;50.698;13.322;2024-03-23T14:47:12;6.73;;;2.40;;
62903;SDS011;49000;50.698;13.322;2024-03-23T14:49:38;3.40;;;2.00;;
62903;SDS011;49000;50.698;13.322;2024-03-23T14:52:03;29.37;;;15.13;;
62903;SDS011;49000;50.698;13.322;2024-03-23T14:54:29;5.73;;;2.90;;
62903;SDS011;49000;50.698;13.322;2024-03-23T14:56:54;7.73;;;2.67;;
62903;SDS011;49000;50.698;13.322;2024-03-23T14:59:23;5.97;;;2.53;;
62903;SDS011;49000;50.698;13.322;2024-03-23T15:01:48;5.43;;;3.20;;
62903;SDS011;49000;50.698;13.322;2024-03-23T15:04:14;4.80;;;2.20;;
62903;SDS011;49000;50.698;13.322;2024-03-23T15:06:39;5.13;;;2.23;;
62903;SDS011;49000;50.698;13.322;2024-03-23T15:09:05;4.43;;;2.47;;
62903;SDS011;49000;50.698;13.322;2024-03-23T15:11:36;5.27;;;2.40;;
62903;SDS011;49000;50.698;13.322;2024-03-23T15:14:02;4.90;;;2.60;;
62903;SDS011;49000;50.698;13.322;2024-03-23T15:16:27;6.10;;;2.67;;
62903;SDS011;49000;50.698;13.322;2024-03-23T15:18:53;7.23;;;2.57;;
62903;SDS011;49000;50.698;13.322;2024-03-23T15:21:18;4.27;;;2.30;;
62903;SDS011;49000;50.698;13.322;2024-03-23T15:23:47;6.30;;;2.43;;
62903;SDS011;49000;50.698;13.322;2024-03-23T15:26:12;5.17;;;2.40;;
62903;SDS011;49000;50.698;13.322;2024-03-23T15:28:38;5.00;;;2.50;;
62903;SDS011;49000;50.698;13.322;2024-03-23T15:31:18;8.03;;;2.37;;
62903;SDS011;49000;50.698;13.322;2024-03-23T15:33:43;4.03;;;2.30;;